PWSweather.com
Personal Weather Stations
Station Observations

OlomoucCZ

Lat: 49.5936202181, Lon: 17.2276005149

Elevation: 752

Station Type: Davis Vantage Pro 2 Activ

http://infopocasi-olomouc.cz

High Low Average
Temperature 41.9°F5.5°C 28.2°F-2.1°C 36.1°F2.3°C
Dew Point 39.2°F4.0°C 22.4°F-5.3°C 30.4°F-0.9°C
Winds 21.9 mph 35.2 kmh 3.5 mph 5.6 kmh 11.0 mph WNW17.7 kmh WNW
Wind Gusts 28.8 mph46.3 kmh 3.5 mph5.6 kmh 16.0 mph25.7 kmh
Humidity 96% 56% 80%
Pressure 29.77 in1008.1 mb 29.18 in988.1 mb -
Precipitation 0.01 in0.3 mm - -
Hour Temp Dew Point Humidity Winds Wind Gusts Pressure Precip Precip Rate Daily Precip Total
12:00 AM 37.3°F2.9°C 36.3°F2.4°C 96% 8.1 mph SE13.0 kmh SE 11.5 mph18.5 kmh 29.18 in988.1 mb - 0.00 in0.0 mm 0.00 in0.0 mm
12:30 AM 40.3°F4.6°C 39.0°F3.9°C 95% 8.1 mph SW13.0 kmh SW 12.7 mph20.4 kmh 29.18 in988.1 mb - 0.00 in0.0 mm 0.00 in0.0 mm
01:00 AM 41.9°F5.5°C 39.2°F4.0°C 90% 16.1 mph WNW25.9 kmh WNW 25.3 mph40.7 kmh 29.19 in988.5 mb - 0.00 in0.0 mm 0.00 in0.0 mm
01:30 AM 40.9°F4.9°C 38.5°F3.6°C 91% 8.1 mph WNW13.0 kmh WNW 13.8 mph22.2 kmh 29.19 in988.5 mb - 0.00 in0.0 mm 0.00 in0.0 mm
02:00 AM 40.1°F4.5°C 37.1°F2.8°C 89% 9.2 mph WNW14.8 kmh WNW 11.5 mph18.5 kmh 29.20 in988.8 mb - 0.00 in0.0 mm 0.00 in0.0 mm
02:30 AM 40.3°F4.6°C 37.0°F2.8°C 88% 9.2 mph NW14.8 kmh NW 12.7 mph20.4 kmh 29.20 in988.8 mb - 0.00 in0.0 mm 0.00 in0.0 mm
03:00 AM 40.5°F4.7°C 36.9°F2.7°C 87% 11.5 mph WNW18.5 kmh WNW 16.1 mph25.9 kmh 29.21 in989.2 mb - 0.00 in0.0 mm 0.00 in0.0 mm
03:30 AM 40.4°F4.7°C 37.1°F2.8°C 88% 8.1 mph WNW13.0 kmh WNW 12.7 mph20.4 kmh 29.21 in989.2 mb - 0.00 in0.0 mm 0.00 in0.0 mm
04:00 AM 40.3°F4.6°C 36.7°F2.6°C 87% 8.1 mph W13.0 kmh W 13.8 mph22.2 kmh 29.22 in989.5 mb - 0.00 in0.0 mm 0.00 in0.0 mm
04:30 AM 40.2°F4.6°C 36.6°F2.6°C 87% 10.4 mph NW16.7 kmh NW 13.8 mph22.2 kmh 29.22 in989.5 mb - 0.00 in0.0 mm 0.00 in0.0 mm
05:00 AM 40.5°F4.7°C 36.6°F2.6°C 86% 9.2 mph WNW14.8 kmh WNW 12.7 mph20.4 kmh 29.23 in989.8 mb - 0.00 in0.0 mm 0.00 in0.0 mm
05:30 AM 40.2°F4.6°C 37.2°F2.9°C 89% 6.9 mph NW11.1 kmh NW 13.8 mph22.2 kmh 29.24 in990.2 mb - 0.00 in0.0 mm 0.00 in0.0 mm
06:00 AM 37.2°F2.9°C 34.5°F1.4°C 90% 11.5 mph NW18.5 kmh NW 20.7 mph33.3 kmh 29.25 in990.5 mb - 0.01 in0.3 mm 0.01 in0.3 mm
06:30 AM 37.7°F3.2°C 34.2°F1.2°C 87% 11.5 mph WNW18.5 kmh WNW 16.1 mph25.9 kmh 29.26 in990.9 mb - 0.01 in0.3 mm 0.01 in0.3 mm
07:00 AM 38.3°F3.5°C 33.9°F1.1°C 84% 10.4 mph NNW16.7 kmh NNW 15.0 mph24.1 kmh 29.29 in991.9 mb - 0.00 in0.0 mm 0.01 in0.3 mm
07:30 AM 38.4°F3.6°C 34.3°F1.3°C 85% 5.8 mph WNW9.3 kmh WNW 18.4 mph29.6 kmh 29.32 in992.9 mb - 0.00 in0.0 mm 0.01 in0.3 mm
08:00 AM 38.1°F3.4°C 34.0°F1.1°C 85% 13.8 mph WNW22.2 kmh WNW 17.3 mph27.8 kmh 29.34 in993.6 mb - 0.00 in0.0 mm 0.01 in0.3 mm
08:30 AM 38.3°F3.5°C 33.9°F1.1°C 84% 12.7 mph WNW20.4 kmh WNW 27.6 mph44.4 kmh 29.37 in994.6 mb - 0.00 in0.0 mm 0.01 in0.3 mm
09:00 AM 38.0°F3.3°C 34.2°F1.2°C 86% 11.5 mph WNW18.5 kmh WNW 15.0 mph24.1 kmh 29.38 in994.9 mb - 0.00 in0.0 mm 0.01 in0.3 mm
09:30 AM 38.5°F3.6°C 33.2°F0.7°C 81% 11.5 mph NW18.5 kmh NW 15.0 mph24.1 kmh 29.40 in995.6 mb - 0.00 in0.0 mm 0.01 in0.3 mm
10:00 AM 38.5°F3.6°C 32.5°F0.3°C 79% 12.7 mph WNW20.4 kmh WNW 20.7 mph33.3 kmh 29.42 in996.3 mb - 0.00 in0.0 mm 0.01 in0.3 mm
10:30 AM 38.6°F3.7°C 30.4°F-0.9°C 72% 18.4 mph WNW29.6 kmh WNW 21.9 mph35.2 kmh 29.44 in997.0 mb - 0.00 in0.0 mm 0.01 in0.3 mm
11:00 AM 38.7°F3.7°C 30.1°F-1.1°C 71% 12.7 mph W20.4 kmh W 24.2 mph38.9 kmh 29.46 in997.6 mb - 0.00 in0.0 mm 0.01 in0.3 mm
11:30 AM 39.1°F3.9°C 29.1°F-1.6°C 67% 11.5 mph NW18.5 kmh NW 19.6 mph31.5 kmh 29.45 in997.3 mb - 0.00 in0.0 mm 0.01 in0.3 mm
12:00 PM 37.9°F3.3°C 29.0°F-1.7°C 70% 18.4 mph NW29.6 kmh NW 26.5 mph42.6 kmh 29.47 in998.0 mb - 0.00 in0.0 mm 0.01 in0.3 mm
12:30 PM 35.0°F1.7°C 31.8°F-0.1°C 88% 6.9 mph W11.1 kmh W 9.2 mph14.8 kmh 29.47 in998.0 mb - 0.00 in0.0 mm 0.01 in0.3 mm
01:00 PM 36.3°F2.4°C 30.1°F-1.1°C 78% 18.4 mph WNW29.6 kmh WNW 28.8 mph46.3 kmh 29.47 in998.0 mb - 0.00 in0.0 mm 0.01 in0.3 mm
01:30 PM 37.0°F2.8°C 26.3°F-3.2°C 65% 15.0 mph WNW24.1 kmh WNW 20.7 mph33.3 kmh 29.48 in998.3 mb - 0.00 in0.0 mm 0.01 in0.3 mm
02:00 PM 37.3°F2.9°C 26.6°F-3.0°C 65% 11.5 mph WNW18.5 kmh WNW 18.4 mph29.6 kmh 29.49 in998.6 mb - 0.00 in0.0 mm 0.01 in0.3 mm
02:30 PM 37.0°F2.8°C 25.6°F-3.6°C 63% 8.1 mph N13.0 kmh N 11.5 mph18.5 kmh 29.50 in999.0 mb - 0.00 in0.0 mm 0.01 in0.3 mm
03:00 PM 37.2°F2.9°C 23.0°F-5.0°C 56% 15.0 mph WNW24.1 kmh WNW 23.0 mph37.0 kmh 29.51 in999.3 mb - 0.00 in0.0 mm 0.01 in0.3 mm
03:30 PM 36.2°F2.3°C 25.2°F-3.8°C 64% 6.9 mph NW11.1 kmh NW 11.5 mph18.5 kmh 29.53 in1000.0 mb - 0.00 in0.0 mm 0.01 in0.3 mm
04:00 PM 35.7°F2.1°C 26.5°F-3.1°C 69% 8.1 mph WNW13.0 kmh WNW 11.5 mph18.5 kmh 29.53 in1000.0 mb - 0.00 in0.0 mm 0.01 in0.3 mm
04:30 PM 35.9°F2.2°C 25.6°F-3.6°C 66% 13.8 mph WNW22.2 kmh WNW 15.0 mph24.1 kmh 29.53 in1000.0 mb - 0.00 in0.0 mm 0.01 in0.3 mm
05:00 PM 34.5°F1.4°C 27.1°F-2.7°C 74% 10.4 mph W16.7 kmh W 19.6 mph31.5 kmh 29.55 in1000.7 mb - 0.00 in0.0 mm 0.01 in0.3 mm
05:30 PM 34.3°F1.3°C 27.2°F-2.7°C 75% 10.4 mph WNW16.7 kmh WNW 12.7 mph20.4 kmh 29.56 in1001.0 mb - 0.00 in0.0 mm 0.01 in0.3 mm
06:00 PM 33.9°F1.1°C 26.8°F-2.9°C 75% 8.1 mph WNW13.0 kmh WNW 11.5 mph18.5 kmh 29.57 in1001.4 mb - 0.00 in0.0 mm 0.01 in0.3 mm
06:30 PM 33.9°F1.1°C 27.1°F-2.7°C 76% 12.7 mph WNW20.4 kmh WNW 13.8 mph22.2 kmh 29.58 in1001.7 mb - 0.00 in0.0 mm 0.01 in0.3 mm
07:00 PM 29.3°F-1.5°C 26.8°F-2.9°C 90% 21.9 mph NW35.2 kmh NW 27.6 mph44.4 kmh 29.62 in1003.0 mb - 0.00 in0.0 mm 0.01 in0.3 mm
07:30 PM 29.2°F-1.6°C 26.4°F-3.1°C 89% 15.0 mph NW24.1 kmh NW 18.4 mph29.6 kmh 29.65 in1004.1 mb - 0.00 in0.0 mm 0.01 in0.3 mm
08:00 PM 29.5°F-1.4°C 24.4°F-4.2°C 81% 11.5 mph NW18.5 kmh NW 18.4 mph29.6 kmh 29.68 in1005.1 mb - 0.00 in0.0 mm 0.01 in0.3 mm
08:30 PM 28.9°F-1.7°C 23.5°F-4.7°C 80% 8.1 mph W13.0 kmh W 9.2 mph14.8 kmh 29.70 in1005.8 mb - 0.00 in0.0 mm 0.01 in0.3 mm
09:00 PM 29.3°F-1.5°C 23.3°F-4.8°C 78% 10.4 mph W16.7 kmh W 11.5 mph18.5 kmh 29.72 in1006.4 mb - 0.00 in0.0 mm 0.01 in0.3 mm
09:30 PM 28.8°F-1.8°C 22.5°F-5.3°C 77% 6.9 mph WNW11.1 kmh WNW 10.4 mph16.7 kmh 29.73 in1006.8 mb - 0.00 in0.0 mm 0.01 in0.3 mm
10:00 PM 28.7°F-1.8°C 22.4°F-5.3°C 77% 8.1 mph WNW13.0 kmh WNW 8.1 mph13.0 kmh 29.75 in1007.5 mb - 0.00 in0.0 mm 0.01 in0.3 mm
10:30 PM 28.8°F-1.8°C 22.8°F-5.1°C 78% 8.1 mph NW13.0 kmh NW 11.5 mph18.5 kmh 29.76 in1007.8 mb - 0.00 in0.0 mm 0.01 in0.3 mm
11:00 PM 28.2°F-2.1°C 22.9°F-5.1°C 80% 3.5 mph NW5.6 kmh NW 3.5 mph5.6 kmh 29.77 in1008.1 mb - 0.00 in0.0 mm 0.01 in0.3 mm
11:30 PM 28.2°F-2.1°C 23.1°F-4.9°C 81% 6.9 mph NW11.1 kmh NW 15.0 mph24.1 kmh 29.77 in1008.1 mb - 0.00 in0.0 mm 0.01 in0.3 mm